Terminal Aerodrome Forecast
Issued by NWS Honolulu, HI

Home | Current Version | Previous Version | Text Only | Print | Product List | Glossary On
Versions: 1 2 3 4 5 6 7 8 9 10 11 12 13 14 15 16 17 18 19 20 21 22 23 24 25 26 27 28 29 30 31 32 33 34 35 36 37 38 39 40 41 42 43
000
FTPA31 PHFO 222300
TAFHNL
TAF
PHNL 222335Z 2300/2406 35011G16KT P6SM VCSH SCT025 BKN035 OVC045
      TEMPO 2300/2304 5SM -RA BKN025
     FM230800 01011KT P6SM VCTS SCT025CB BKN035 OVC045
     FM232000 02014G20KT P6SM VCSH SCT025 BKN035 OVC045
     FM240500 02010KT P6SM VCSH SCT025 BKN035 OVC045=

USA.gov is the U.S. government's official web portal to all federal, state and local government web resources and services.